Friday, September 19, 2014, 5:52 PM EDT

KPHF, Williamsburg International Airport

Location: Newport News, VA, United States Lat: 37.133
Local Time: 5:52 PM EDT (21:52 GMT) Lon: -76.5
Time Zone: US/Eastern Elev: 42 ft

Show me the last for .
Show Decoded

2014-09-19 16:54 METAR KPHF 192054Z AUTO 11008KT 10SM CLR 25/14 A3023 RMK AO2 SLP236 T02500144
                 53002 TSNO =
2014-09-19 15:54 METAR KPHF 191954Z AUTO 09008KT 070V130 10SM CLR 27/16 A3022 RMK AO2 SLP234
                 T02670156 TSNO =
2014-09-19 14:54 METAR KPHF 191854Z AUTO 07009KT FEW080 27/15 A3022 RMK AO2 SLP233 T02670150 TSNO
                 $ =
2014-09-19 13:54 METAR KPHF 191754Z 09010KT SCT039 27/15 A3023 RMK AO2 SLP234 6//// T02670150
                 10267 20206 58001 $ =
2014-09-19 12:54 METAR KPHF 191654Z VRB06KT 10SM 26/16 A3023 RMK AO2 SLP237 T02610156 $ =
2014-09-19 11:54 METAR KPHF 191554Z 09007KT 040V120 10SM BKN100 26/14 A3023 RMK AO2 SLP237
                 T02610139 =
2014-09-19 10:54 METAR KPHF 191454Z 07007KT 10SM SCT100 26/13 A3023 =
2014-09-19 09:54 METAR KPHF 191354Z 05006KT 10SM SCT100 25/17 A3022 RMK AO2 SLP231 T02500172 =
2014-09-19 08:54 METAR KPHF 191254Z 01005KT 10SM BKN090 22/17 A3020 RMK AO2 SLP227 T02220167 =
2014-09-19 07:54 METAR KPHF 191154Z 02003KT 10SM OVC095 21/16 A3018 =
2014-09-19 06:54 METAR KPHF 191054Z 01003KT 10SM FEW080 OVC095 20/16 A3017 RMK AO2 SLP215
                 T02000156 =
2014-09-19 05:54 METAR KPHF 190954Z 00000KT 10SM OVC095 20/16 A3014 RMK AO2 SLP207 T02000156 =
2014-09-19 04:54 METAR KPHF 190854Z 00000KT 10SM FEW047 OVC095 19/16 A3013 RMK AO2 SLP201
                 T01940161 53008 =
2014-09-19 03:54 METAR KPHF 190754Z 00000KT 10SM FEW044 OVC090 19/16 A3012 RMK AO2 SLP197
                 T01940156 =
2014-09-19 02:54 METAR KPHF 190654Z 00000KT 10SM OVC090 18/15 A3011 RMK AO2 SLP195 T01830150 =
2014-09-19 01:54 METAR KPHF 190554Z 02003KT 10SM FEW050 SCT080 19/16 A3010 RMK AO2 SLP193
                 T01890156 10228 20189 53009 =
2014-09-19 00:54 METAR KPHF 190454Z 00000KT 10SM BKN070 OVC085 20/16 A3009 =
2014-09-18 23:54 METAR KPHF 190354Z 00000KT 10SM OVC085 21/16 A3008 RMK AO2 SLP186 T02060156 =
2014-09-18 22:54 METAR KPHF 190254Z 06003KT 10SM OVC065 21/16 A3007 RMK AO2 SLP183 T02110156
                 51013 =
2014-09-18 21:54 METAR KPHF 190154Z 00000KT 10SM OVC055 23/14 A3007 RMK AO2 SLP182 T02280139 =
2014-09-18 20:54 METAR KPHF 190054Z 11003KT 10SM OVC070 23/14 A3006 RMK AO2 SLP178 T02280139 =
2014-09-18 19:54 METAR KPHF 182354Z 10004KT 10SM OVC075 23/13 A3004 RMK AO2 SLP170 T02280128
                 10272 20228 53008 =
2014-09-18 18:54 METAR KPHF 182254Z 11005KT 10SM BKN085 23/13 A3002 RMK AO2 SLP165 T02280133 =
2014-09-18 17:54 METAR KPHF 182154Z AUTO 10006KT 10SM OVC085 23/13 A3001 RMK AO2 SLP162 T02330128
                 TSNO =

Support USWX by starting your Amazon purchase here.